createdAt,value
2018-10-21T00:00:10.974Z,8.61
2018-10-21T00:02:39.649Z,8.54
2018-10-21T00:05:09.735Z,8.63
2018-10-21T00:07:39.032Z,8.61
2018-10-21T00:10:09.066Z,8.56
2018-10-21T00:12:38.470Z,8.50
2018-10-21T00:15:09.070Z,8.46
2018-10-21T00:17:37.718Z,8.46
2018-10-21T00:20:07.245Z,8.44
2018-10-21T00:22:36.058Z,8.43
2018-10-21T00:25:05.113Z,8.43
2018-10-21T00:27:33.826Z,8.46
2018-10-21T00:30:02.570Z,8.47
2018-10-21T00:32:36.355Z,8.44
2018-10-21T00:35:05.627Z,8.42
2018-10-21T00:37:34.281Z,8.34
2018-10-21T00:40:02.961Z,8.29
2018-10-21T00:42:31.746Z,8.24
2018-10-21T00:45:00.450Z,8.19
2018-10-21T00:47:29.194Z,8.20
2018-10-21T00:49:58.194Z,8.16
2018-10-21T00:52:27.473Z,8.22
2018-10-21T00:54:56.133Z,8.17
2018-10-21T00:57:24.804Z,8.04
2018-10-21T00:59:53.610Z,8.05
2018-10-21T01:16:35.521Z,8.06
2018-10-21T01:19:04.557Z,8.18
2018-10-21T01:21:33.373Z,8.22
2018-10-21T01:24:02.326Z,8.26
2018-10-21T01:26:31.069Z,8.28
2018-10-21T01:28:59.794Z,8.34
2018-10-21T01:31:28.558Z,8.30
2018-10-21T01:33:57.306Z,8.22
2018-10-21T01:36:26.529Z,8.24
2018-10-21T01:38:55.096Z,8.19
2018-10-21T01:43:58.429Z,8.25
2018-10-21T01:54:59.153Z,8.41
2018-10-21T01:57:27.818Z,8.45
2018-10-21T01:59:56.905Z,8.43
2018-10-21T02:02:26.091Z,8.46
2018-10-21T02:04:54.852Z,8.53
2018-10-21T02:07:23.598Z,8.55
2018-10-21T02:09:52.636Z,8.54
2018-10-21T02:12:21.982Z,8.56
2018-10-21T02:14:51.170Z,8.60
2018-10-21T02:17:20.283Z,8.62
2018-10-21T02:19:49.568Z,8.70
2018-10-21T02:22:18.712Z,8.67
2018-10-21T02:24:47.660Z,8.67
2018-10-21T02:27:16.982Z,8.69
2018-10-21T02:29:45.713Z,8.78
2018-10-21T02:32:14.476Z,8.84
2018-10-21T02:34:43.224Z,8.85
2018-10-21T02:37:11.963Z,8.82
2018-10-21T02:39:40.714Z,8.81
2018-10-21T02:42:09.454Z,8.79
2018-10-21T02:44:38.243Z,8.71
2018-10-21T02:47:07.173Z,8.71
2018-10-21T02:49:35.983Z,8.57
2018-10-21T02:52:08.696Z,8.58
2018-10-21T02:54:37.762Z,8.52
2018-10-21T02:57:08.151Z,8.50
2018-10-21T02:59:37.181Z,8.47
2018-10-21T03:02:06.141Z,8.51
2018-10-21T03:04:34.925Z,8.53
2018-10-21T03:07:03.686Z,8.56
2018-10-21T03:09:32.742Z,8.55
2018-10-21T03:12:01.591Z,8.60
2018-10-21T03:14:30.326Z,8.68
2018-10-21T03:16:59.338Z,8.68
2018-10-21T03:19:28.065Z,8.71
2018-10-21T03:21:56.754Z,8.75
2018-10-21T03:24:25.461Z,8.74
2018-10-21T03:26:54.168Z,8.76
2018-10-21T03:29:22.915Z,8.78
2018-10-21T03:31:51.655Z,8.77
2018-10-21T03:34:20.390Z,8.84
2018-10-21T03:36:49.047Z,8.87
2018-10-21T03:39:17.954Z,8.86
2018-10-21T03:41:46.694Z,8.87
2018-10-21T03:44:15.342Z,8.90
2018-10-21T03:46:44.046Z,8.91
2018-10-21T03:49:12.864Z,8.88
2018-10-21T03:51:41.566Z,8.88
2018-10-21T03:54:10.358Z,9.02
2018-10-21T03:56:39.102Z,9.02
2018-10-21T03:59:07.869Z,9.02
2018-10-21T04:01:36.601Z,8.98
2018-10-21T04:04:05.736Z,9.05
2018-10-21T04:06:34.670Z,8.97
2018-10-21T04:09:03.525Z,8.99
2018-10-21T04:11:32.323Z,8.95
2018-10-21T04:14:01.086Z,8.94
2018-10-21T04:16:29.855Z,8.86
2018-10-21T04:18:58.845Z,8.77
2018-10-21T04:21:27.611Z,8.68
2018-10-21T04:23:56.237Z,8.68
2018-10-21T04:26:25.046Z,8.59
2018-10-21T04:28:53.774Z,8.52
2018-10-21T04:31:22.501Z,8.47
2018-10-21T04:33:51.467Z,8.33
2018-10-21T04:36:22.110Z,8.30
2018-10-21T04:40:10.340Z,8.21
2018-10-21T04:42:39.015Z,8.16
2018-10-21T04:45:08.463Z,8.22
2018-10-21T04:47:37.200Z,8.12
2018-10-21T04:50:07.256Z,8.07
2018-10-21T04:52:36.024Z,8.04
2018-10-21T04:55:06.590Z,7.96
2018-10-21T04:57:36.541Z,7.92
2018-10-21T05:00:07.710Z,7.85
2018-10-21T05:02:36.659Z,7.78
2018-10-21T05:05:06.106Z,7.73
2018-10-21T05:07:34.883Z,7.76
2018-10-21T05:10:03.830Z,7.80
2018-10-21T05:12:32.527Z,7.75
2018-10-21T05:15:01.477Z,7.79
2018-10-21T05:17:30.363Z,7.79
2018-10-21T05:19:59.022Z,7.65
2018-10-21T05:22:27.858Z,7.74
2018-10-21T05:24:56.529Z,7.80
2018-10-21T05:27:25.245Z,7.87
2018-10-21T05:29:54.121Z,7.87
2018-10-21T05:32:22.840Z,7.84
2018-10-21T05:34:51.552Z,7.81
2018-10-21T05:37:20.301Z,7.73
2018-10-21T05:39:48.951Z,7.74
2018-10-21T05:42:17.732Z,7.74
2018-10-21T05:44:46.407Z,7.74
2018-10-21T05:47:15.264Z,7.73
2018-10-21T05:49:43.849Z,7.66
2018-10-21T05:52:12.885Z,7.69
2018-10-21T05:54:41.522Z,7.66
2018-10-21T05:57:10.254Z,7.59
2018-10-21T05:59:39.215Z,7.62
2018-10-21T06:02:07.958Z,7.58
2018-10-21T06:04:36.620Z,7.58
2018-10-21T06:07:05.720Z,7.47
2018-10-21T06:09:34.511Z,7.51
2018-10-21T06:12:03.334Z,7.53
2018-10-21T06:14:32.078Z,7.47
2018-10-21T06:17:36.398Z,7.49
2018-10-21T06:20:12.610Z,7.59
2018-10-21T06:22:43.846Z,7.59
2018-10-21T06:25:12.533Z,7.57
2018-10-21T06:27:41.512Z,7.63
2018-10-21T06:30:11.703Z,7.55
2018-10-21T06:32:40.649Z,7.44
2018-10-21T06:35:10.181Z,7.38
2018-10-21T06:37:39.381Z,7.45
2018-10-21T06:40:10.306Z,7.42
2018-10-21T06:42:39.241Z,7.42
2018-10-21T06:45:09.609Z,7.47
2018-10-21T06:47:38.388Z,7.52
2018-10-21T06:50:09.229Z,7.63
2018-10-21T06:52:38.122Z,7.67
2018-10-21T06:55:07.101Z,7.74
2018-10-21T06:57:35.793Z,7.78
2018-10-21T07:00:04.770Z,7.78
2018-10-21T07:02:33.606Z,7.87
2018-10-21T07:05:02.358Z,7.93
2018-10-21T07:07:31.041Z,7.93
2018-10-21T07:09:59.854Z,7.84
2018-10-21T07:12:28.575Z,7.89
2018-10-21T07:14:57.474Z,8.06
2018-10-21T07:17:26.486Z,8.13
2018-10-21T07:19:55.203Z,8.18
2018-10-21T07:22:23.930Z,8.24
2018-10-21T07:24:52.730Z,8.26
2018-10-21T07:27:21.492Z,8.40
2018-10-21T07:29:50.259Z,8.47
2018-10-21T07:32:19.059Z,8.48
2018-10-21T07:34:47.867Z,8.63
2018-10-21T07:37:16.636Z,8.72
2018-10-21T07:39:45.288Z,8.76
2018-10-21T07:42:14.211Z,8.81
2018-10-21T07:44:49.147Z,8.94
2018-10-21T07:47:17.862Z,9.08
2018-10-21T07:49:46.637Z,9.10
2018-10-21T07:52:15.529Z,9.31
2018-10-21T07:54:46.166Z,9.45
2018-10-21T07:57:16.326Z,9.44
2018-10-21T07:59:45.409Z,9.37
2018-10-21T08:02:14.082Z,9.43
2018-10-21T08:04:42.771Z,9.54
2018-10-21T08:07:22.578Z,9.77
2018-10-21T08:09:51.966Z,9.82
2018-10-21T08:12:20.931Z,9.98
2018-10-21T08:14:49.767Z,10.01
2018-10-21T08:17:18.496Z,9.93
2018-10-21T08:19:47.146Z,10.07
2018-10-21T08:22:15.952Z,10.09
2018-10-21T08:24:44.685Z,9.93
2018-10-21T08:27:13.460Z,10.03
2018-10-21T08:29:42.172Z,10.26
2018-10-21T08:32:10.951Z,10.51
2018-10-21T08:34:39.603Z,10.42
2018-10-21T08:37:08.382Z,10.66
2018-10-21T08:39:37.166Z,10.86
2018-10-21T08:42:05.895Z,10.92
2018-10-21T08:44:34.654Z,11.10
2018-10-21T08:47:03.328Z,11.08
2018-10-21T08:49:32.083Z,11.29
2018-10-21T08:52:00.909Z,11.43
2018-10-21T08:54:29.553Z,11.44
2018-10-21T08:56:58.447Z,11.49
2018-10-21T08:59:27.233Z,11.61
2018-10-21T09:01:56.482Z,11.66
2018-10-21T09:04:25.258Z,11.66
2018-10-21T09:06:54.270Z,11.79
2018-10-21T09:09:23.042Z,11.72
2018-10-21T09:11:51.715Z,11.88
2018-10-21T09:14:20.439Z,11.80
2018-10-21T09:16:49.222Z,11.91
2018-10-21T09:19:18.081Z,11.82
2018-10-21T09:21:46.857Z,12.11
2018-10-21T09:24:15.534Z,12.10
2018-10-21T09:26:44.377Z,12.13
2018-10-21T09:29:13.229Z,12.18
2018-10-21T09:31:42.029Z,12.38
2018-10-21T09:34:10.884Z,12.45
2018-10-21T09:36:39.834Z,12.51
2018-10-21T09:39:12.042Z,12.46
2018-10-21T09:41:41.039Z,12.49
2018-10-21T09:44:10.714Z,12.80
2018-10-21T09:46:39.938Z,12.82
2018-10-21T09:49:09.654Z,13.01
2018-10-21T09:51:38.750Z,13.14
2018-10-21T09:54:07.576Z,13.33
2018-10-21T09:56:36.751Z,13.35
2018-10-21T09:59:05.945Z,13.39
2018-10-21T10:01:39.907Z,13.41
2018-10-21T10:04:09.358Z,13.51
2018-10-21T10:06:38.106Z,13.40
2018-10-21T10:09:09.681Z,13.42
2018-10-21T10:11:38.366Z,13.45
2018-10-21T10:14:07.165Z,13.55
2018-10-21T10:16:36.164Z,13.72
2018-10-21T10:19:05.406Z,13.78
2018-10-21T10:21:34.155Z,13.77
2018-10-21T10:24:02.890Z,13.87
2018-10-21T10:26:31.830Z,13.81
2018-10-21T10:29:00.603Z,13.80
2018-10-21T10:31:29.307Z,13.94
2018-10-21T10:33:58.093Z,13.95
2018-10-21T10:36:26.764Z,14.06
2018-10-21T10:38:55.514Z,14.18
2018-10-21T10:41:24.203Z,14.25
2018-10-21T10:43:52.839Z,14.05
2018-10-21T10:46:21.729Z,14.15
2018-10-21T10:48:50.501Z,14.11
2018-10-21T10:51:19.350Z,14.01
2018-10-21T10:53:48.106Z,13.96
2018-10-21T10:56:16.809Z,14.05
2018-10-21T10:58:45.517Z,14.03
2018-10-21T11:01:14.339Z,14.15
2018-10-21T11:03:43.002Z,14.25
2018-10-21T11:06:11.690Z,14.34
2018-10-21T11:08:40.646Z,14.08
2018-10-21T11:11:09.379Z,13.93
2018-10-21T11:13:38.222Z,14.01
2018-10-21T11:16:07.503Z,13.98
2018-10-21T11:18:36.254Z,14.13
2018-10-21T11:21:05.326Z,14.22
2018-10-21T11:23:34.087Z,14.57
2018-10-21T11:26:03.461Z,15.00
2018-10-21T11:28:32.282Z,15.21
2018-10-21T11:31:01.075Z,15.62
2018-10-21T11:33:29.850Z,16.02
2018-10-21T11:35:58.511Z,16.38
2018-10-21T11:38:27.338Z,16.65
2018-10-21T11:40:55.993Z,16.91
2018-10-21T11:43:24.927Z,17.20
2018-10-21T11:45:53.618Z,17.67
2018-10-21T11:48:22.353Z,18.12
2018-10-21T11:50:51.138Z,18.62
2018-10-21T11:53:20.085Z,19.08
2018-10-21T11:55:48.973Z,19.71
2018-10-21T11:58:18.111Z,20.15
2018-10-21T12:00:47.167Z,20.40
2018-10-21T12:03:16.133Z,20.56
2018-10-21T12:05:44.926Z,21.04
2018-10-21T12:08:14.086Z,21.33
2018-10-21T12:10:42.793Z,21.68
2018-10-21T12:13:11.637Z,22.36
2018-10-21T12:15:40.304Z,22.90
2018-10-21T12:18:09.490Z,22.45
2018-10-21T12:20:39.097Z,22.85
2018-10-21T12:23:08.010Z,23.07
2018-10-21T12:25:43.184Z,23.48
2018-10-21T12:28:11.935Z,24.48
2018-10-21T12:30:40.618Z,24.40
2018-10-21T12:33:09.306Z,24.78
2018-10-21T12:35:38.219Z,25.39
2018-10-21T12:38:06.934Z,26.31
2018-10-21T12:40:35.638Z,26.79
2018-10-21T12:43:04.602Z,27.44
2018-10-21T12:45:33.459Z,27.84
2018-10-21T12:48:02.229Z,24.61
2018-10-21T12:50:31.048Z,26.23
2018-10-21T12:52:59.862Z,26.74
2018-10-21T12:55:28.530Z,28.14
2018-10-21T12:57:57.328Z,27.98
2018-10-21T13:00:26.189Z,27.99
2018-10-21T13:02:54.868Z,28.07
2018-10-21T13:05:23.625Z,28.79
2018-10-21T13:07:52.462Z,27.74
2018-10-21T13:10:21.282Z,28.24
2018-10-21T13:12:50.309Z,28.92
2018-10-21T13:15:18.990Z,29.70
2018-10-21T13:17:47.702Z,29.28
2018-10-21T13:20:16.449Z,29.30
2018-10-21T13:22:45.221Z,28.96
2018-10-21T13:25:14.091Z,28.71
2018-10-21T13:27:42.754Z,28.65
2018-10-21T13:30:11.609Z,29.50
2018-10-21T13:32:40.381Z,29.22
2018-10-21T13:35:09.130Z,29.16
2018-10-21T13:37:38.027Z,30.25
2018-10-21T13:40:07.199Z,30.83
2018-10-21T13:42:36.007Z,31.15
2018-10-21T13:45:04.818Z,32.06
2018-10-21T13:47:33.629Z,31.89
2018-10-21T13:50:02.274Z,31.40
2018-10-21T13:52:31.006Z,31.40
2018-10-21T13:54:59.642Z,32.49
2018-10-21T13:57:28.306Z,33.17
2018-10-21T13:59:56.973Z,32.61
2018-10-21T14:02:25.752Z,30.49
2018-10-21T14:04:54.509Z,29.76
2018-10-21T14:07:23.385Z,28.11
2018-10-21T14:09:52.195Z,25.08
2018-10-21T14:12:20.957Z,23.67
2018-10-21T14:14:49.848Z,22.93
2018-10-21T14:17:18.746Z,22.29
2018-10-21T14:19:47.547Z,21.72
2018-10-21T14:22:16.372Z,20.91
2018-10-21T14:24:45.144Z,20.40
2018-10-21T14:27:13.895Z,20.65
2018-10-21T14:29:42.608Z,20.83
2018-10-21T14:32:11.347Z,19.99
2018-10-21T14:34:40.179Z,19.65
2018-10-21T14:37:08.872Z,19.00
2018-10-21T14:39:37.568Z,18.88
2018-10-21T14:42:06.431Z,18.64
2018-10-21T14:44:36.884Z,18.40
2018-10-21T14:47:05.826Z,18.24
2018-10-21T14:49:34.749Z,18.06
2018-10-21T14:52:03.523Z,17.65
2018-10-21T14:54:32.286Z,17.41
2018-10-21T14:57:01.433Z,17.18
2018-10-21T14:59:30.226Z,17.23
2018-10-21T15:01:59.321Z,17.17
2018-10-21T15:04:28.145Z,17.03
2018-10-21T15:06:56.959Z,17.00
2018-10-21T15:09:25.735Z,16.91
2018-10-21T15:11:54.418Z,16.82
2018-10-21T15:14:23.110Z,16.67
2018-10-21T15:16:51.956Z,16.61
2018-10-21T15:19:20.749Z,16.65
2018-10-21T15:21:49.762Z,16.50
2018-10-21T15:24:18.473Z,16.25
2018-10-21T15:26:47.174Z,16.13
2018-10-21T15:29:16.004Z,16.07
2018-10-21T15:31:44.659Z,16.02
2018-10-21T15:34:13.595Z,15.94
2018-10-21T15:36:42.401Z,15.84
2018-10-21T15:39:11.806Z,15.86
2018-10-21T15:41:40.844Z,15.59
2018-10-21T15:44:09.984Z,15.70
2018-10-21T15:46:38.937Z,15.55
2018-10-21T15:49:07.666Z,15.58
2018-10-21T15:51:36.468Z,15.40
2018-10-21T15:54:05.490Z,15.30
2018-10-21T15:56:34.465Z,15.22
2018-10-21T15:59:03.367Z,15.11
2018-10-21T16:01:32.097Z,14.93
2018-10-21T16:04:00.828Z,14.85
2018-10-21T16:06:29.569Z,14.81
2018-10-21T16:08:58.523Z,14.72
2018-10-21T16:11:27.362Z,14.63
2018-10-21T16:13:56.234Z,14.53
2018-10-21T16:16:24.934Z,14.38
2018-10-21T16:18:53.732Z,14.42
2018-10-21T16:21:22.487Z,14.22
2018-10-21T16:23:51.203Z,14.16
2018-10-21T16:26:20.093Z,14.10
2018-10-21T16:28:48.835Z,14.00
2018-10-21T16:31:17.547Z,13.91
2018-10-21T16:33:46.262Z,13.79
2018-10-21T16:36:15.033Z,13.73
2018-10-21T16:38:43.917Z,13.68
2018-10-21T16:41:12.662Z,13.69
2018-10-21T16:43:41.464Z,13.57
2018-10-21T16:46:10.183Z,13.48
2018-10-21T16:48:38.964Z,13.41
2018-10-21T16:51:08.212Z,13.36
2018-10-21T16:53:36.908Z,13.38
2018-10-21T16:56:05.877Z,13.33
2018-10-21T16:58:34.633Z,13.27
2018-10-21T17:01:03.532Z,13.22
2018-10-21T17:03:32.272Z,13.17
2018-10-21T17:06:01.805Z,13.11
2018-10-21T17:08:30.586Z,13.04
2018-10-21T17:10:59.388Z,12.99
2018-10-21T17:13:28.090Z,12.92
2018-10-21T17:15:56.917Z,12.92
2018-10-21T17:18:25.687Z,12.88
2018-10-21T17:20:54.515Z,12.76
2018-10-21T17:23:23.386Z,12.62
2018-10-21T17:25:52.195Z,12.64
2018-10-21T17:28:20.995Z,12.57
2018-10-21T17:30:49.803Z,12.41
2018-10-21T17:33:18.494Z,12.35
2018-10-21T17:35:47.359Z,12.24
2018-10-21T17:38:16.047Z,12.15
2018-10-21T17:40:44.897Z,12.06
2018-10-21T17:43:13.540Z,12.01
2018-10-21T17:45:42.245Z,12.02
2018-10-21T17:48:11.201Z,11.98
2018-10-21T17:50:40.014Z,11.86
2018-10-21T17:53:08.861Z,11.83
2018-10-21T17:55:37.612Z,11.82
2018-10-21T17:58:06.414Z,11.80
2018-10-21T18:00:35.095Z,11.51
2018-10-21T18:03:03.760Z,11.49
2018-10-21T18:05:32.637Z,11.50
2018-10-21T18:08:01.599Z,11.42
2018-10-21T18:10:30.337Z,11.21
2018-10-21T18:12:59.318Z,11.19
2018-10-21T18:15:27.955Z,11.15
2018-10-21T18:17:56.878Z,11.17
2018-10-21T18:20:25.635Z,11.14
2018-10-21T18:22:54.466Z,11.03
2018-10-21T18:25:23.274Z,10.95
2018-10-21T18:27:51.933Z,10.93
2018-10-21T18:30:20.723Z,10.96
2018-10-21T18:32:49.485Z,10.90
2018-10-21T18:35:18.244Z,10.90
2018-10-21T18:37:47.021Z,10.82
2018-10-21T18:40:15.853Z,10.83
2018-10-21T18:42:44.732Z,10.72
2018-10-21T18:45:14.736Z,10.64
2018-10-21T18:47:44.113Z,10.55
2018-10-21T18:50:14.257Z,10.33
2018-10-21T18:52:43.144Z,10.29
2018-10-21T18:55:12.365Z,10.34
2018-10-21T18:57:41.328Z,10.37
2018-10-21T19:00:13.793Z,10.37
2018-10-21T19:02:42.641Z,10.21
2018-10-21T19:05:12.038Z,10.18
2018-10-21T19:07:40.790Z,10.24
2018-10-21T19:10:11.831Z,10.26
2018-10-21T19:12:40.664Z,10.20
2018-10-21T19:15:10.871Z,10.07
2018-10-21T19:17:40.033Z,10.05
2018-10-21T19:20:11.186Z,10.03
2018-10-21T19:22:40.070Z,9.97
2018-10-21T19:25:10.359Z,9.85
2018-10-21T19:27:39.189Z,9.82
2018-10-21T19:30:09.130Z,9.72
2018-10-21T19:32:37.938Z,9.66
2018-10-21T19:35:07.611Z,9.61
2018-10-21T19:37:36.371Z,9.69
2018-10-21T19:40:05.950Z,9.68
2018-10-21T19:42:34.663Z,9.69
2018-10-21T19:45:03.654Z,9.63
2018-10-21T19:47:32.406Z,9.64
2018-10-21T19:50:01.371Z,9.63
2018-10-21T19:52:30.142Z,9.58
2018-10-21T19:54:58.837Z,9.54
2018-10-21T19:57:34.387Z,9.55
2018-10-21T20:00:03.626Z,9.43
2018-10-21T20:02:32.351Z,9.37
2018-10-21T20:05:01.069Z,9.37
2018-10-21T20:07:29.831Z,9.31
2018-10-21T20:09:58.676Z,9.23
2018-10-21T20:12:27.538Z,9.11
2018-10-21T20:14:56.231Z,9.06
2018-10-21T20:17:25.074Z,9.03
2018-10-21T20:19:53.787Z,9.06
2018-10-21T20:22:22.514Z,8.99
2018-10-21T20:24:51.212Z,8.91
2018-10-21T20:27:19.949Z,8.90
2018-10-21T20:29:48.623Z,8.90
2018-10-21T20:32:17.410Z,8.95
2018-10-21T20:34:46.109Z,8.97
2018-10-21T20:37:14.899Z,9.03
2018-10-21T20:39:50.137Z,9.00
2018-10-21T20:42:19.356Z,8.99
2018-10-21T20:44:48.153Z,8.95
2018-10-21T20:47:16.921Z,8.93
2018-10-21T20:49:45.747Z,8.89
2018-10-21T20:52:14.624Z,8.86
2018-10-21T20:54:48.543Z,8.86
2018-10-21T20:57:17.347Z,8.80
2018-10-21T20:59:47.233Z,8.87
2018-10-21T21:02:16.830Z,8.91
2018-10-21T21:04:45.501Z,8.75
2018-10-21T21:07:14.304Z,8.78
2018-10-21T21:09:43.086Z,8.68
2018-10-21T21:12:12.020Z,8.62
2018-10-21T21:14:40.746Z,8.58
2018-10-21T21:17:09.507Z,8.51
2018-10-21T21:19:38.286Z,8.43
2018-10-21T21:22:07.007Z,8.41
2018-10-21T21:24:35.712Z,8.29
2018-10-21T21:27:04.550Z,8.30
2018-10-21T21:29:33.345Z,8.31
2018-10-21T21:32:02.077Z,8.34
2018-10-21T21:34:30.880Z,8.29
2018-10-21T21:36:59.765Z,8.31
2018-10-21T21:39:28.801Z,8.29
2018-10-21T21:41:57.557Z,8.21
2018-10-21T21:44:26.382Z,8.17
2018-10-21T21:46:55.121Z,8.11
2018-10-21T21:49:23.839Z,8.16
2018-10-21T21:51:52.573Z,8.07
2018-10-21T21:54:21.256Z,8.02
2018-10-21T21:56:49.963Z,7.95
2018-10-21T21:59:18.621Z,7.94
2018-10-21T22:01:47.415Z,8.00
2018-10-21T22:04:16.130Z,8.05
2018-10-21T22:06:44.797Z,8.00
2018-10-21T22:09:14.058Z,7.92
2018-10-21T22:11:42.810Z,7.77
2018-10-21T22:14:11.726Z,7.69
2018-10-21T22:16:40.446Z,7.68
2018-10-21T22:19:09.621Z,7.57
2018-10-21T22:21:39.007Z,7.56
2018-10-21T22:24:09.068Z,7.50
2018-10-21T22:26:37.915Z,7.55
2018-10-21T22:29:07.247Z,7.49
2018-10-21T22:31:35.986Z,7.50
2018-10-21T22:34:04.998Z,7.56
2018-10-21T22:36:33.935Z,7.59
2018-10-21T22:39:02.728Z,7.63
2018-10-21T22:41:31.442Z,7.58
2018-10-21T22:44:00.227Z,7.59
2018-10-21T22:46:28.921Z,7.46
2018-10-21T22:48:57.558Z,7.38
2018-10-21T22:51:26.369Z,7.22
2018-10-21T22:53:55.390Z,7.20
2018-10-21T22:56:24.074Z,7.17
2018-10-21T22:58:52.797Z,7.10
2018-10-21T23:01:21.545Z,6.93
2018-10-21T23:03:50.209Z,6.90
2018-10-21T23:06:19.087Z,6.85
2018-10-21T23:08:47.963Z,6.84
2018-10-21T23:11:16.720Z,6.85
2018-10-21T23:13:45.441Z,6.88
2018-10-21T23:16:14.318Z,6.81
2018-10-21T23:18:43.263Z,6.88
2018-10-21T23:21:12.058Z,6.95
2018-10-21T23:23:40.929Z,6.96
2018-10-21T23:26:09.637Z,7.02
2018-10-21T23:28:38.385Z,7.08
2018-10-21T23:31:07.257Z,7.15
2018-10-21T23:33:35.929Z,7.17
2018-10-21T23:36:05.063Z,7.11
2018-10-21T23:38:34.333Z,7.00
2018-10-21T23:41:03.066Z,6.95
2018-10-21T23:43:31.850Z,6.86
2018-10-21T23:46:00.556Z,6.80
2018-10-21T23:48:29.254Z,6.69
2018-10-21T23:50:57.937Z,6.65
2018-10-21T23:53:26.786Z,6.67
2018-10-21T23:55:55.575Z,6.68
2018-10-21T23:58:24.326Z,6.58
